Time;durP1;ratioP1;P1;durP2;ratioP2;P2;SDS_P1;SDS_P2;PMS_P1;PMS_P2;Temp;Humidity;BMP_temperature;BMP_pressure;BME280_temperature;BME280_humidity;BME280_pressure;Samples;Min_cycle;Max_cycle;Signal;HPM_P1;HPM_P2
2023/08/13 00:00:01;;;;;;;4.55;1.35;;;19.70;67.50;;;;;;5061044;28;20044;-76
2023/08/13 00:02:27;;;;;;;4.68;1.45;;;19.70;67.60;;;;;;5062846;28;20071;-75
2023/08/13 00:04:56;;;;;;;1.45;1.02;;;19.70;67.70;;;;;;5054502;28;20496;-74
2023/08/13 00:07:22;;;;;;;3.78;1.83;;;19.70;67.70;;;;;;5059593;28;20067;-74
2023/08/13 00:09:48;;;;;;;2.70;1.42;;;19.70;68.10;;;;;;5039447;28;20017;-71
2023/08/13 00:12:14;;;;;;;4.25;1.40;;;19.70;67.80;;;;;;5058711;28;20113;-71
2023/08/13 00:14:40;;;;;;;4.40;2.00;;;19.70;67.80;;;;;;5061082;28;20051;-73
2023/08/13 00:17:06;;;;;;;3.85;1.42;;;19.70;67.80;;;;;;5059353;28;20496;-71
2023/08/13 00:19:32;;;;;;;3.97;1.13;;;19.70;67.90;;;;;;5059882;28;20436;-71
2023/08/13 00:21:58;;;;;;;1.95;1.35;;;19.60;67.70;;;;;;5060127;28;20032;-73
2023/08/13 00:24:24;;;;;;;2.90;1.13;;;19.60;67.80;;;;;;5058641;28;20032;-72
2023/08/13 00:26:53;;;;;;;4.25;1.40;;;19.60;67.90;;;;;;5057370;28;20059;-70
2023/08/13 00:29:19;;;;;;;3.08;1.02;;;19.60;67.90;;;;;;5063148;28;20853;-71
2023/08/13 00:31:45;;;;;;;3.58;1.60;;;19.60;67.90;;;;;;5063817;28;20127;-71
2023/08/13 00:34:11;;;;;;;4.68;1.30;;;19.50;67.80;;;;;;5062993;28;20048;-72
2023/08/13 00:36:37;;;;;;;3.08;1.17;;;19.50;67.90;;;;;;5063568;28;20151;-72
2023/08/13 00:39:03;;;;;;;5.90;1.48;;;19.50;67.90;;;;;;5061588;28;20423;-73
2023/08/13 00:41:29;;;;;;;4.10;1.60;;;19.50;67.90;;;;;;5062050;28;20045;-73
2023/08/13 00:43:55;;;;;;;5.28;1.42;;;19.50;68.00;;;;;;5059909;28;20024;-71
2023/08/13 00:46:21;;;;;;;7.57;2.08;;;19.50;68.00;;;;;;5061053;28;20427;-70
2023/08/13 00:48:54;;;;;;;5.97;1.70;;;19.50;68.10;;;;;;5059812;28;20174;-71
2023/08/13 00:51:22;;;;;;;2.72;1.23;;;19.50;68.10;;;;;;5079188;28;20063;-70
2023/08/13 00:53:48;;;;;;;2.13;1.02;;;19.40;68.00;;;;;;5058977;28;20032;-70
2023/08/13 00:56:15;;;;;;;3.95;2.15;;;19.40;68.00;;;;;;5059939;28;20032;-72
2023/08/13 00:58:42;;;;;;;4.13;1.00;;;19.40;68.00;;;;;;5062179;28;20062;-73
2023/08/13 01:01:09;;;;;;;3.65;1.10;;;19.40;68.10;;;;;;5059856;28;20109;-71
2023/08/13 01:03:37;;;;;;;2.53;1.27;;;19.40;68.10;;;;;;5066193;28;20032;-76
2023/08/13 01:06:30;;;;;;;4.20;1.88;;;19.40;68.70;;;;;;5061363;28;20032;-70
2023/08/13 01:09:10;;;;;;;4.40;1.45;;;19.40;68.20;;;;;;5050983;28;20039;-75
2023/08/13 01:11:39;;;;;;;1.60;1.20;;;19.40;68.20;;;;;;5061851;28;20040;-74
2023/08/13 01:14:12;;;;;;;3.40;1.00;;;19.40;68.20;;;;;;5059987;28;20025;-71
2023/08/13 01:16:42;;;;;;;5.22;1.80;;;19.40;68.20;;;;;;5061812;28;20040;-70
2023/08/13 01:19:12;;;;;;;3.20;1.08;;;19.40;68.20;;;;;;5063200;28;20020;-72
2023/08/13 01:21:39;;;;;;;4.30;1.00;;;19.40;68.30;;;;;;5060988;28;20048;-71
2023/08/13 01:24:05;;;;;;;3.80;1.30;;;19.40;68.80;;;;;;5063761;28;20020;-71
2023/08/13 01:26:47;;;;;;;3.25;0.88;;;19.30;68.10;;;;;;5062130;28;20036;-73
2023/08/13 01:29:24;;;;;;;4.70;1.48;;;19.30;68.30;;;;;;5063643;28;20033;-71
2023/08/13 01:32:02;;;;;;;3.78;1.42;;;19.30;68.30;;;;;;5067675;28;20028;-70
2023/08/13 01:34:29;;;;;;;2.35;1.00;;;19.30;68.30;;;;;;5058540;28;20155;-72
2023/08/13 01:36:57;;;;;;;4.20;1.30;;;19.30;68.30;;;;;;5068089;28;20181;-71
2023/08/13 01:39:23;;;;;;;3.75;0.98;;;19.30;68.30;;;;;;5061744;28;20029;-75
2023/08/13 01:41:53;;;;;;;5.13;1.75;;;19.30;68.30;;;;;;5064855;28;20043;-74
2023/08/13 01:44:19;;;;;;;2.67;1.45;;;19.30;68.50;;;;;;5063857;28;20244;-77
2023/08/13 01:46:46;;;;;;;5.82;2.40;;;19.20;68.30;;;;;;5064070;28;20189;-73
2023/08/13 01:49:12;;;;;;;5.05;1.42;;;19.20;68.30;;;;;;5060540;28;20139;-78
2023/08/13 01:51:38;;;;;;;3.35;1.50;;;19.20;68.40;;;;;;5057858;28;20550;-73
2023/08/13 01:54:05;;;;;;;4.20;1.73;;;19.20;68.40;;;;;;5070491;28;20029;-74
2023/08/13 01:56:30;;;;;;;2.28;1.50;;;19.20;68.50;;;;;;5066743;28;20521;-73
2023/08/13 01:58:56;;;;;;;3.33;1.40;;;19.20;68.60;;;;;;5069278;28;20040;-74
2023/08/13 02:01:23;;;;;;;3.25;1.50;;;19.20;68.60;;;;;;5066141;28;20127;-72
2023/08/13 02:03:49;;;;;;;3.70;1.83;;;19.20;68.70;;;;;;5062099;28;20024;-73
2023/08/13 02:06:15;;;;;;;6.55;2.05;;;19.10;68.60;;;;;;5064692;28;20836;-72
2023/08/13 02:08:41;;;;;;;3.33;1.20;;;19.10;68.70;;;;;;5056791;28;20471;-71
2023/08/13 02:11:07;;;;;;;3.10;1.35;;;19.10;68.70;;;;;;5067347;28;20412;-71
2023/08/13 02:13:33;;;;;;;2.78;1.55;;;19.10;68.80;;;;;;5062968;28;20037;-72
2023/08/13 02:16:03;;;;;;;3.15;1.35;;;19.10;68.90;;;;;;5073522;28;20040;-72
2023/08/13 02:18:29;;;;;;;3.03;1.30;;;19.10;68.90;;;;;;5070822;28;20028;-77
2023/08/13 02:20:55;;;;;;;4.85;1.65;;;19.10;69.00;;;;;;5074758;28;20044;-76
2023/08/13 02:23:21;;;;;;;3.85;1.55;;;19.10;69.00;;;;;;5062601;28;20024;-73
2023/08/13 02:25:47;;;;;;;5.40;1.50;;;19.10;69.10;;;;;;5064327;28;20051;-73
2023/08/13 02:28:13;;;;;;;3.50;1.45;;;19.00;69.00;;;;;;5067841;28;20037;-71
2023/08/13 02:30:39;;;;;;;5.28;1.08;;;19.00;69.50;;;;;;5070104;28;20333;-72
2023/08/13 02:33:05;;;;;;;3.80;1.92;;;19.00;69.10;;;;;;5063494;28;20314;-71
2023/08/13 02:35:35;;;;;;;5.47;1.60;;;19.00;69.10;;;;;;5049374;28;20051;-71
2023/08/13 02:38:01;;;;;;;5.70;1.58;;;19.00;69.20;;;;;;5065375;28;20629;-71
2023/08/13 02:40:27;;;;;;;2.42;1.33;;;19.00;69.20;;;;;;5070201;28;20059;-71
2023/08/13 02:42:53;;;;;;;5.15;1.40;;;19.00;69.30;;;;;;5065160;28;20024;-70
2023/08/13 02:45:19;;;;;;;2.75;1.45;;;19.00;69.30;;;;;;5064077;28;20365;-71
2023/08/13 02:47:45;;;;;;;5.95;2.03;;;19.00;69.40;;;;;;5063549;28;20071;-72
2023/08/13 02:50:11;;;;;;;4.22;1.15;;;19.00;69.50;;;;;;5061860;28;20568;-70
2023/08/13 02:52:37;;;;;;;5.72;1.55;;;18.90;69.30;;;;;;5059101;28;20044;-72
2023/08/13 02:55:03;;;;;;;3.72;1.38;;;19.00;69.50;;;;;;5069263;28;20030;-69
2023/08/13 02:57:29;;;;;;;4.18;1.25;;;18.90;69.40;;;;;;5063887;28;20028;-70
2023/08/13 02:59:55;;;;;;;5.50;1.83;;;18.90;69.50;;;;;;5069990;28;20338;-70
2023/08/13 03:02:21;;;;;;;3.50;1.15;;;18.90;69.50;;;;;;5066404;28;20429;-69
2023/08/13 03:04:47;;;;;;;7.50;2.08;;;18.90;69.60;;;;;;5068382;28;20119;-70
2023/08/13 03:07:13;;;;;;;3.65;1.42;;;18.90;69.60;;;;;;5045122;28;20119;-72
2023/08/13 03:09:39;;;;;;;3.17;1.20;;;18.90;69.60;;;;;;5070754;28;20024;-71
2023/08/13 03:12:06;;;;;;;4.20;1.10;;;18.90;69.70;;;;;;5062946;28;20579;-73
2023/08/13 03:14:32;;;;;;;5.43;1.20;;;18.90;69.70;;;;;;5048964;28;20035;-73
2023/08/13 03:16:58;;;;;;;3.60;1.38;;;18.80;69.60;;;;;;5060791;28;20786;-69
2023/08/13 03:19:24;;;;;;;3.83;1.42;;;18.80;69.60;;;;;;5068668;28;20023;-71
2023/08/13 03:21:50;;;;;;;3.53;1.40;;;18.80;69.70;;;;;;5044268;28;20553;-70
2023/08/13 03:24:16;;;;;;;2.80;1.45;;;18.80;69.70;;;;;;5064073;28;20117;-69
2023/08/13 03:26:44;;;;;;;5.25;1.30;;;18.80;69.80;;;;;;5059359;28;20392;-70
2023/08/13 03:29:10;;;;;;;4.00;1.77;;;18.70;69.70;;;;;;5062725;28;20037;-71
2023/08/13 03:31:38;;;;;;;3.45;1.25;;;18.70;69.70;;;;;;5060646;28;20032;-71
2023/08/13 03:34:16;;;;;;;2.33;1.20;;;18.70;69.80;;;;;;5057897;28;20055;-70
2023/08/13 03:36:42;;;;;;;3.13;0.93;;;18.70;69.80;;;;;;5071304;28;20025;-73
2023/08/13 03:39:08;;;;;;;2.78;1.38;;;18.70;69.80;;;;;;5060533;28;20090;-73
2023/08/13 03:41:34;;;;;;;4.15;2.47;;;18.70;69.90;;;;;;5058700;28;20044;-73
2023/08/13 03:44:00;;;;;;;2.42;1.10;;;18.70;69.90;;;;;;5063197;28;20447;-73
2023/08/13 03:46:26;;;;;;;3.13;1.13;;;18.60;69.80;;;;;;5060855;28;20468;-71
2023/08/13 03:48:52;;;;;;;3.35;1.05;;;18.70;70.00;;;;;;5060590;28;20029;-71
2023/08/13 03:51:18;;;;;;;4.30;1.20;;;18.70;70.00;;;;;;5061175;28;20051;-72
2023/08/13 03:53:44;;;;;;;3.75;1.88;;;18.70;70.00;;;;;;5057815;28;20032;-71
2023/08/13 03:56:10;;;;;;;3.25;1.00;;;18.70;70.00;;;;;;5062622;28;20425;-70
2023/08/13 03:58:38;;;;;;;3.08;1.10;;;18.70;70.00;;;;;;5060958;28;20035;-75
2023/08/13 04:01:06;;;;;;;2.25;1.17;;;18.60;69.90;;;;;;5059824;28;20048;-71
2023/08/13 04:03:34;;;;;;;4.22;1.38;;;18.70;70.10;;;;;;5058443;28;20043;-74
2023/08/13 04:06:01;;;;;;;3.40;0.90;;;18.60;69.90;;;;;;5064057;28;20035;-74
2023/08/13 04:08:27;;;;;;;1.55;0.90;;;18.60;70.00;;;;;;5054570;28;20048;-74
2023/08/13 04:10:53;;;;;;;3.95;1.38;;;18.60;70.00;;;;;;5059156;28;20368;-71
2023/08/13 04:13:19;;;;;;;2.25;1.20;;;18.60;70.10;;;;;;5074444;28;20031;-69
2023/08/13 04:15:45;;;;;;;3.40;1.20;;;18.60;70.70;;;;;;5057645;28;20578;-71
2023/08/13 04:18:12;;;;;;;3.00;1.33;;;18.60;70.20;;;;;;5043614;28;20165;-73
2023/08/13 04:20:41;;;;;;;2.13;1.10;;;18.60;70.20;;;;;;5060566;28;20865;-77
2023/08/13 04:23:07;;;;;;;2.97;1.40;;;18.60;70.20;;;;;;5061777;28;20127;-74
2023/08/13 04:25:35;;;;;;;1.95;1.42;;;18.60;70.20;;;;;;5061515;28;20102;-74
2023/08/13 04:28:02;;;;;;;2.03;1.00;;;18.60;70.30;;;;;;5064144;28;20036;-74
2023/08/13 04:30:30;;;;;;;3.35;1.70;;;18.50;70.10;;;;;;5063736;28;20035;-74
2023/08/13 04:32:56;;;;;;;2.20;1.08;;;18.50;70.10;;;;;;5071583;28;20202;-72
2023/08/13 04:35:26;;;;;;;3.30;0.98;;;18.50;70.10;;;;;;5068286;28;20235;-72
2023/08/13 04:37:52;;;;;;;2.35;1.05;;;18.50;70.20;;;;;;5058995;28;20515;-70
2023/08/13 04:40:20;;;;;;;2.97;1.40;;;18.50;70.20;;;;;;5061381;28;20051;-71
2023/08/13 04:42:47;;;;;;;1.85;0.90;;;18.50;70.20;;;;;;5062296;28;20475;-72
2023/08/13 04:45:15;;;;;;;2.97;1.73;;;18.50;70.20;;;;;;5068054;28;20488;-72
2023/08/13 04:47:42;;;;;;;3.60;1.30;;;18.50;70.30;;;;;;5044171;28;20035;-69
2023/08/13 04:50:09;;;;;;;3.00;1.45;;;18.40;70.20;;;;;;5063024;28;20021;-71
2023/08/13 04:52:36;;;;;;;4.47;1.10;;;18.40;70.20;;;;;;5060745;28;20066;-70
2023/08/13 04:55:02;;;;;;;5.13;1.35;;;18.40;70.20;;;;;;5066616;28;20052;-70
2023/08/13 04:57:29;;;;;;;3.70;1.35;;;18.40;70.30;;;;;;5064446;28;20124;-70
2023/08/13 04:59:55;;;;;;;2.67;1.10;;;18.40;70.30;;;;;;5070468;28;20050;-72
2023/08/13 05:02:21;;;;;;;1.88;1.00;;;18.40;70.30;;;;;;5064073;28;20041;-73
2023/08/13 05:04:48;;;;;;;2.15;1.20;;;18.40;70.40;;;;;;5042176;28;20055;-75
2023/08/13 05:07:14;;;;;;;2.17;1.38;;;18.40;70.40;;;;;;5054404;28;20032;-70
2023/08/13 05:09:40;;;;;;;3.97;1.95;;;18.40;70.40;;;;;;5059718;28;20032;-72
2023/08/13 05:12:07;;;;;;;3.45;1.52;;;18.40;70.40;;;;;;5064314;28;20056;-73
2023/08/13 05:14:34;;;;;;;4.53;1.88;;;18.40;70.40;;;;;;5075175;28;20369;-73
2023/08/13 05:17:00;;;;;;;2.45;1.25;;;18.40;70.40;;;;;;5050227;28;20029;-73
2023/08/13 05:19:26;;;;;;;5.70;1.60;;;18.40;70.40;;;;;;5063187;28;20859;-72
2023/08/13 05:21:52;;;;;;;3.17;1.42;;;18.40;70.40;;;;;;5060651;28;20048;-71
2023/08/13 05:24:18;;;;;;;3.55;1.10;;;18.40;70.50;;;;;;5066864;28;20025;-76
2023/08/13 05:26:44;;;;;;;2.30;1.13;;;18.40;70.50;;;;;;5051537;28;20036;-74
2023/08/13 05:29:10;;;;;;;3.00;1.58;;;18.40;70.40;;;;;;5064078;28;20097;-71
2023/08/13 05:31:36;;;;;;;3.60;1.73;;;18.40;70.40;;;;;;5062987;28;20130;-72
2023/08/13 05:34:03;;;;;;;5.07;1.50;;;18.40;70.40;;;;;;5068487;28;20558;-71
2023/08/13 05:36:29;;;;;;;3.60;1.40;;;18.50;70.60;;;;;;5070417;28;20218;-74
2023/08/13 05:38:56;;;;;;;4.20;1.27;;;18.50;70.50;;;;;;5059378;28;20051;-73
2023/08/13 05:41:22;;;;;;;3.38;1.60;;;18.50;70.50;;;;;;5057559;28;20643;-71
2023/08/13 05:43:50;;;;;;;5.20;1.40;;;18.50;70.40;;;;;;5074124;28;20062;-73
2023/08/13 05:46:16;;;;;;;14.52;4.20;;;18.60;70.60;;;;;;5048180;28;20511;-71
2023/08/13 05:48:43;;;;;;;12.65;3.30;;;18.60;70.80;;;;;;5054594;28;20556;-73
2023/08/13 05:51:09;;;;;;;8.88;2.03;;;18.70;71.10;;;;;;5058988;28;20033;-73
2023/08/13 05:53:35;;;;;;;9.70;2.13;;;18.70;71.20;;;;;;5062083;28;20597;-72
2023/08/13 05:56:01;;;;;;;4.97;1.52;;;18.70;71.20;;;;;;5062217;28;20032;-74
2023/08/13 05:58:27;;;;;;;6.22;1.65;;;18.80;71.30;;;;;;5072509;28;20421;-73
2023/08/13 06:00:53;;;;;;;5.15;1.95;;;18.80;71.20;;;;;;5068250;28;20086;-76
2023/08/13 06:03:19;;;;;;;3.88;1.23;;;18.90;71.20;;;;;;5057061;28;20029;-73
2023/08/13 06:05:47;;;;;;;2.92;1.88;;;18.90;71.10;;;;;;5060322;28;20036;-76
2023/08/13 06:08:13;;;;;;;3.67;1.40;;;19.00;71.20;;;;;;5062437;28;20094;-74
2023/08/13 06:10:39;;;;;;;4.90;0.98;;;18.90;70.90;;;;;;5075530;28;20032;-73
2023/08/13 06:13:05;;;;;;;3.97;1.33;;;19.00;71.00;;;;;;5075742;28;20105;-72
2023/08/13 06:15:31;;;;;;;3.38;1.42;;;19.00;70.80;;;;;;5071744;28;20020;-74
2023/08/13 06:17:57;;;;;;;4.10;1.38;;;19.00;70.70;;;;;;5075697;28;20040;-73
2023/08/13 06:20:23;;;;;;;4.25;1.20;;;19.10;70.80;;;;;;5081232;28;20051;-75
2023/08/13 06:22:50;;;;;;;6.95;1.65;;;19.10;70.70;;;;;;5064044;28;20170;-74
2023/08/13 06:25:16;;;;;;;4.28;1.50;;;19.20;70.70;;;;;;5062120;28;20020;-77
2023/08/13 06:27:42;;;;;;;4.57;1.55;;;19.10;70.40;;;;;;5063719;28;20035;-77
2023/08/13 06:30:09;;;;;;;2.65;1.13;;;19.10;70.30;;;;;;5062328;28;20025;-76
2023/08/13 06:32:34;;;;;;;2.85;1.17;;;19.10;70.30;;;;;;5061228;28;20071;-75
2023/08/13 06:35:01;;;;;;;3.42;0.95;;;19.00;70.20;;;;;;5066520;28;20221;-74
2023/08/13 06:37:27;;;;;;;3.13;1.27;;;19.00;70.30;;;;;;5058405;28;20033;-73
2023/08/13 06:39:53;;;;;;;4.25;1.65;;;19.00;70.30;;;;;;5061234;28;20427;-76
2023/08/13 06:42:19;;;;;;;1.67;1.10;;;19.00;70.30;;;;;;5059955;28;20046;-77
2023/08/13 06:44:46;;;;;;;2.70;1.08;;;19.00;70.30;;;;;;5060884;28;20622;-75
2023/08/13 06:47:12;;;;;;;2.55;0.90;;;19.00;70.20;;;;;;5064346;28;20050;-74
2023/08/13 06:49:39;;;;;;;5.30;1.52;;;19.10;70.40;;;;;;5062310;28;20020;-79
2023/08/13 06:52:05;;;;;;;3.40;1.35;;;19.10;70.80;;;;;;5062928;28;20028;-80
2023/08/13 06:54:31;;;;;;;2.20;1.20;;;19.10;70.30;;;;;;5062507;28;20043;-76
2023/08/13 06:56:57;;;;;;;3.88;1.65;;;19.10;70.30;;;;;;5057978;28;20131;-73
2023/08/13 06:59:23;;;;;;;5.72;1.48;;;19.00;70.10;;;;;;5064068;28;20027;-75
2023/08/13 07:01:49;;;;;;;4.18;1.40;;;19.10;70.30;;;;;;5064846;28;20037;-74
2023/08/13 07:04:15;;;;;;;2.35;1.23;;;19.00;70.10;;;;;;5060621;28;20236;-74
2023/08/13 07:06:41;;;;;;;4.57;1.17;;;19.00;70.10;;;;;;5062976;28;20485;-75
2023/08/13 07:09:07;;;;;;;4.72;1.33;;;19.00;70.20;;;;;;5056478;28;20037;-71
2023/08/13 07:11:33;;;;;;;4.68;1.42;;;18.90;70.30;;;;;;5062567;28;20041;-71
2023/08/13 07:13:59;;;;;;;7.45;2.22;;;18.90;70.90;;;;;;5062081;28;20059;-71
2023/08/13 07:16:25;;;;;;;3.05;1.17;;;19.00;71.40;;;;;;5064197;28;20041;-72
2023/08/13 07:18:51;;;;;;;3.55;0.98;;;19.10;71.80;;;;;;5065853;28;20028;-71
2023/08/13 07:21:17;;;;;;;5.00;1.75;;;19.20;72.00;;;;;;5067123;28;20044;-71
2023/08/13 07:23:43;;;;;;;2.65;1.10;;;19.20;72.00;;;;;;5055545;28;20112;-72
2023/08/13 07:26:09;;;;;;;2.20;1.20;;;19.30;72.10;;;;;;5054198;28;20043;-72
2023/08/13 07:28:38;;;;;;;4.22;1.17;;;19.40;72.20;;;;;;5065129;28;20105;-74
2023/08/13 07:31:04;;;;;;;4.00;1.40;;;19.50;72.40;;;;;;5056211;28;20043;-70
2023/08/13 07:33:31;;;;;;;3.85;1.27;;;19.50;72.40;;;;;;5061282;28;20540;-71
2023/08/13 07:36:02;;;;;;;4.10;2.00;;;19.60;72.60;;;;;;5062802;28;20191;-71
2023/08/13 07:38:28;;;;;;;3.13;0.98;;;19.60;72.60;;;;;;5051656;28;20036;-72
2023/08/13 07:40:57;;;;;;;4.03;1.10;;;19.80;72.70;;;;;;5058166;28;20048;-70
2023/08/13 07:43:26;;;;;;;4.20;0.90;;;19.90;72.60;;;;;;5060476;28;20553;-71
2023/08/13 07:45:53;;;;;;;4.00;1.30;;;20.00;72.50;;;;;;5059362;28;20493;-70
2023/08/13 07:48:19;;;;;;;2.50;1.05;;;20.20;72.40;;;;;;5055491;28;20043;-73
2023/08/13 07:50:45;;;;;;;3.67;0.90;;;20.40;72.30;;;;;;5068580;28;20036;-73
2023/08/13 07:53:11;;;;;;;3.65;1.10;;;20.50;71.90;;;;;;5058935;28;20037;-71
2023/08/13 07:55:37;;;;;;;2.15;0.82;;;20.60;71.40;;;;;;5047972;28;20078;-72
2023/08/13 07:58:03;;;;;;;5.80;0.90;;;20.70;71.10;;;;;;5057607;28;20039;-73
2023/08/13 08:00:30;;;;;;;2.97;0.70;;;20.70;70.80;;;;;;5058597;28;20290;-72
2023/08/13 08:02:56;;;;;;;3.40;1.25;;;20.80;70.70;;;;;;5055463;28;20032;-71
2023/08/13 08:05:22;;;;;;;2.97;0.95;;;20.70;70.30;;;;;;5059225;28;20036;-70
2023/08/13 08:07:48;;;;;;;3.35;1.30;;;20.80;70.30;;;;;;5060846;28;20120;-74
2023/08/13 08:10:14;;;;;;;2.50;0.82;;;20.80;70.00;;;;;;5051470;28;20642;-72
2023/08/13 08:12:40;;;;;;;5.70;1.58;;;20.80;69.80;;;;;;5058247;28;20036;-75
2023/08/13 08:15:07;;;;;;;7.10;1.92;;;20.90;69.60;;;;;;5056262;28;20877;-76
2023/08/13 08:17:35;;;;;;;3.50;1.08;;;20.90;69.20;;;;;;5057008;28;20048;-73
2023/08/13 08:20:02;;;;;;;4.82;1.63;;;21.00;69.10;;;;;;5057122;28;20214;-73
2023/08/13 08:22:28;;;;;;;3.70;0.80;;;21.10;68.90;;;;;;5055191;28;20051;-74
2023/08/13 08:24:54;;;;;;;4.22;1.30;;;21.20;68.70;;;;;;5059947;28;20028;-74
2023/08/13 08:27:20;;;;;;;3.65;0.70;;;21.30;68.40;;;;;;5056821;28;20681;-71
2023/08/13 08:29:46;;;;;;;7.88;2.03;;;21.30;68.00;;;;;;5055265;28;20174;-70
2023/08/13 08:32:12;;;;;;;3.22;1.65;;;21.40;68.00;;;;;;5057510;28;20032;-76
2023/08/13 08:34:39;;;;;;;4.43;1.88;;;21.50;68.30;;;;;;5058518;28;20045;-71
2023/08/13 08:37:05;;;;;;;3.40;1.20;;;21.70;68.50;;;;;;5060551;28;20048;-76
2023/08/13 08:39:31;;;;;;;4.65;1.73;;;21.90;68.60;;;;;;5056338;28;20566;-72
2023/08/13 08:41:58;;;;;;;4.20;1.60;;;22.00;68.40;;;;;;5058089;28;20500;-73
2023/08/13 08:44:24;;;;;;;3.78;1.35;;;22.20;68.40;;;;;;5050557;28;20102;-75
2023/08/13 08:46:54;;;;;;;2.70;1.25;;;22.50;68.40;;;;;;5061574;28;20094;-74
2023/08/13 08:49:23;;;;;;;3.03;1.10;;;22.70;68.20;;;;;;5060931;28;20036;-73
2023/08/13 08:51:50;;;;;;;5.00;1.55;;;23.00;68.20;;;;;;5061705;28;20036;-72
2023/08/13 08:54:18;;;;;;;4.95;1.60;;;23.20;67.90;;;;;;5060207;28;20717;-71
2023/08/13 08:56:44;;;;;;;4.00;1.10;;;23.40;67.70;;;;;;5061040;28;20217;-71
2023/08/13 08:59:10;;;;;;;2.65;1.13;;;23.50;67.40;;;;;;5059549;28;20481;-73
2023/08/13 09:01:36;;;;;;;2.83;0.98;;;23.70;67.90;;;;;;5062890;28;20457;-71
2023/08/13 09:04:02;;;;;;;3.40;1.27;;;23.90;67.30;;;;;;5066032;28;20028;-71
2023/08/13 09:06:54;;;;;;;1.75;0.88;;;24.00;67.10;;;;;;5067429;28;20075;-71
2023/08/13 09:09:20;;;;;;;3.22;1.08;;;24.20;66.70;;;;;;5051984;28;20201;-68
2023/08/13 09:11:46;;;;;;;3.15;0.82;;;24.40;66.70;;;;;;5056928;28;20032;-73
2023/08/13 09:14:14;;;;;;;2.20;1.00;;;24.60;66.20;;;;;;5061762;28;20082;-75
2023/08/13 09:16:50;;;;;;;2.38;0.90;;;24.80;65.90;;;;;;5052716;28;20305;-70
2023/08/13 09:19:18;;;;;;;4.43;1.15;;;24.90;65.50;;;;;;5058929;28;20040;-66
2023/08/13 09:21:53;;;;;;;3.40;1.25;;;24.90;65.30;;;;;;5059734;28;20082;-68
2023/08/13 09:24:30;;;;;;;4.32;1.63;;;25.00;64.90;;;;;;5059477;28;20032;-69
2023/08/13 09:26:56;;;;;;;3.90;1.27;;;25.10;64.70;;;;;;5057611;28;20071;-69
2023/08/13 09:29:22;;;;;;;2.40;0.90;;;25.20;64.30;;;;;;5060580;28;20199;-71
2023/08/13 09:31:49;;;;;;;4.93;1.73;;;25.30;63.90;;;;;;5059485;28;20477;-70
2023/08/13 09:34:18;;;;;;;3.38;0.90;;;25.30;63.50;;;;;;5064466;28;20459;-69
2023/08/13 09:36:44;;;;;;;3.05;1.02;;;25.40;63.20;;;;;;5064023;28;20040;-71
2023/08/13 09:39:13;;;;;;;3.92;1.13;;;25.50;62.90;;;;;;5059047;28;20403;-72
2023/08/13 09:41:40;;;;;;;3.30;1.25;;;25.50;63.20;;;;;;5063111;28;20047;-70
2023/08/13 09:44:10;;;;;;;3.40;1.23;;;25.60;62.50;;;;;;5063001;28;20037;-72
2023/08/13 09:46:36;;;;;;;4.38;1.42;;;25.60;62.20;;;;;;5065131;28;20045;-72
2023/08/13 09:49:04;;;;;;;2.28;1.08;;;25.70;62.10;;;;;;5056180;28;20250;-71
2023/08/13 09:51:32;;;;;;;4.60;1.30;;;25.80;61.90;;;;;;5059224;28;20040;-70
2023/08/13 09:54:09;;;;;;;5.18;1.40;;;25.80;61.60;;;;;;5059544;28;20036;-70
2023/08/13 09:56:38;;;;;;;2.92;1.50;;;25.90;61.30;;;;;;5064917;28;20047;-70
2023/08/13 09:59:04;;;;;;;5.05;1.52;;;25.90;61.40;;;;;;5063090;28;20289;-68
2023/08/13 10:01:31;;;;;;;6.13;1.30;;;26.00;61.30;;;;;;5069592;28;20043;-70
2023/08/13 10:03:58;;;;;;;4.70;1.55;;;26.10;61.10;;;;;;5068087;28;20269;-70
2023/08/13 10:06:24;;;;;;;2.88;0.90;;;26.20;60.90;;;;;;5060395;28;20032;-70
2023/08/13 10:08:51;;;;;;;4.07;1.40;;;26.30;60.80;;;;;;5067750;28;20029;-70
2023/08/13 10:11:17;;;;;;;2.20;1.02;;;26.50;60.60;;;;;;5064324;28;20025;-69
2023/08/13 10:13:43;;;;;;;3.03;0.93;;;26.70;60.40;;;;;;5059183;28;20032;-73
2023/08/13 10:16:14;;;;;;;4.13;1.33;;;26.80;60.00;;;;;;5066977;28;20036;-73
2023/08/13 10:18:45;;;;;;;3.53;1.08;;;27.00;59.80;;;;;;5055467;28;20033;-71
2023/08/13 10:21:14;;;;;;;2.55;0.75;;;27.10;59.50;;;;;;5063670;28;20040;-70
2023/08/13 10:23:43;;;;;;;2.60;1.27;;;27.20;59.30;;;;;;5056015;28;20028;-70
2023/08/13 10:26:09;;;;;;;3.58;0.90;;;27.20;59.20;;;;;;5057533;28;20117;-70
2023/08/13 10:28:35;;;;;;;3.78;0.90;;;27.30;59.00;;;;;;5064199;28;20055;-70
2023/08/13 10:31:24;;;;;;;4.68;1.02;;;27.40;58.80;;;;;;5058040;28;20108;-73
2023/08/13 10:34:37;;;;;;;4.72;0.93;;;27.40;58.70;;;;;;5065204;28;20050;-69
2023/08/13 10:37:23;;;;;;;4.60;0.98;;;27.50;58.40;;;;;;5058307;28;20101;-69
2023/08/13 10:39:55;;;;;;;1.40;0.80;;;27.50;58.30;;;;;;5053277;28;20051;-69
2023/08/13 10:42:27;;;;;;;2.70;0.95;;;27.60;58.20;;;;;;5070163;28;20120;-69
2023/08/13 10:45:00;;;;;;;1.92;1.08;;;27.60;58.00;;;;;;5061578;28;20415;-69
2023/08/13 10:47:43;;;;;;;3.15;1.02;;;27.70;57.80;;;;;;5061722;28;20028;-69
2023/08/13 10:50:30;;;;;;;1.15;0.93;;;27.80;57.80;;;;;;5068616;28;20032;-69
2023/08/13 10:53:10;;;;;;;2.08;0.70;;;27.80;57.50;;;;;;5052175;28;20036;-69
2023/08/13 10:55:41;;;;;;;3.22;1.45;;;27.90;57.30;;;;;;5055519;28;20094;-71
2023/08/13 10:58:20;;;;;;;3.22;1.20;;;28.00;57.00;;;;;;5062927;28;20166;-69
2023/08/13 11:00:46;;;;;;;1.98;0.73;;;28.00;56.70;;;;;;5058766;28;20058;-70
2023/08/13 11:03:16;;;;;;;3.33;0.93;;;28.20;56.70;;;;;;5066827;28;20384;-71
2023/08/13 11:05:46;;;;;;;3.15;1.02;;;28.20;56.40;;;;;;5065713;28;20040;-70
2023/08/13 11:08:20;;;;;;;3.45;0.77;;;28.40;56.40;;;;;;5056292;28;20032;-70
2023/08/13 11:10:47;;;;;;;3.45;1.00;;;28.50;56.20;;;;;;5053449;28;20114;-70
2023/08/13 11:13:15;;;;;;;1.42;0.60;;;28.60;56.20;;;;;;5063303;28;20111;-71
2023/08/13 11:15:48;;;;;;;2.65;0.85;;;28.60;56.10;;;;;;5060569;28;20510;-70
2023/08/13 11:18:15;;;;;;;2.58;0.93;;;28.60;55.80;;;;;;5060581;28;20576;-70
2023/08/13 11:20:41;;;;;;;2.38;1.00;;;28.70;56.10;;;;;;5065243;28;20283;-70
2023/08/13 11:23:07;;;;;;;3.85;1.35;;;28.70;56.00;;;;;;5057115;28;20047;-70
2023/08/13 11:25:34;;;;;;;2.80;0.95;;;28.70;55.80;;;;;;5068548;28;20508;-70
2023/08/13 11:28:00;;;;;;;2.33;1.25;;;28.80;55.80;;;;;;5051654;28;20028;-73
2023/08/13 11:30:27;;;;;;;3.75;1.30;;;28.70;55.70;;;;;;5065365;28;20043;-73
2023/08/13 11:32:53;;;;;;;3.08;1.10;;;28.70;55.70;;;;;;5055182;28;20067;-71
2023/08/13 11:35:19;;;;;;;3.10;2.10;;;28.70;55.60;;;;;;5058043;28;20175;-72
2023/08/13 11:37:45;;;;;;;5.78;1.40;;;28.70;55.40;;;;;;5058986;28;20178;-70
2023/08/13 11:40:13;;;;;;;2.92;2.00;;;28.70;54.90;;;;;;5063865;28;20054;-72
2023/08/13 11:42:56;;;;;;;4.60;2.13;;;28.70;54.70;;;;;;5060871;28;20089;-70
2023/08/13 11:45:23;;;;;;;3.85;2.15;;;28.60;54.30;;;;;;5058513;28;20128;-72
2023/08/13 11:47:51;;;;;;;3.13;1.75;;;28.50;54.40;;;;;;5061123;28;20032;-71
2023/08/13 11:50:23;;;;;;;4.22;1.67;;;28.40;54.20;;;;;;5059216;28;20107;-71
2023/08/13 11:53:07;;;;;;;4.05;2.33;;;28.30;54.10;;;;;;5058689;28;20025;-70
2023/08/13 11:55:34;;;;;;;4.53;1.90;;;28.20;54.10;;;;;;5058946;28;20033;-73
2023/08/13 11:58:01;;;;;;;4.43;2.42;;;28.10;54.30;;;;;;5056347;28;20094;-71
2023/08/13 12:00:27;;;;;;;4.30;2.50;;;28.20;54.60;;;;;;5066865;28;20048;-70
2023/08/13 12:02:59;;;;;;;3.40;2.13;;;28.30;54.80;;;;;;5058391;28;20051;-70
2023/08/13 12:05:30;;;;;;;3.53;2.10;;;28.40;54.50;;;;;;5062550;28;20433;-70
2023/08/13 12:08:02;;;;;;;2.97;2.03;;;28.60;54.30;;;;;;5063676;28;20031;-71
2023/08/13 12:10:28;;;;;;;5.03;3.35;;;28.70;54.20;;;;;;5058163;28;20050;-70
2023/08/13 12:12:54;;;;;;;5.97;2.67;;;28.80;54.20;;;;;;5062041;28;20033;-72
2023/08/13 12:15:24;;;;;;;3.30;1.98;;;28.90;54.30;;;;;;5065265;28;20039;-71
2023/08/13 12:17:55;;;;;;;4.32;2.53;;;28.80;54.30;;;;;;5052634;28;20274;-72
2023/08/13 12:20:22;;;;;;;9.15;2.53;;;28.90;54.50;;;;;;5061440;28;20029;-72
2023/08/13 12:22:49;;;;;;;5.32;2.20;;;28.90;54.50;;;;;;5055279;28;20056;-71
2023/08/13 12:25:16;;;;;;;5.63;2.65;;;29.00;54.20;;;;;;5053403;28;20024;-71
2023/08/13 12:27:43;;;;;;;6.32;2.55;;;29.10;54.50;;;;;;5053778;28;20058;-72
2023/08/13 12:30:10;;;;;;;4.68;1.90;;;29.20;54.60;;;;;;5055345;28;20090;-71
2023/08/13 12:32:37;;;;;;;3.80;1.80;;;29.20;54.80;;;;;;5060647;28;20095;-72
2023/08/13 12:35:03;;;;;;;3.30;1.73;;;29.30;54.90;;;;;;5056640;28;20128;-73
2023/08/13 12:37:29;;;;;;;5.03;1.90;;;29.30;54.70;;;;;;5055702;28;20062;-73
2023/08/13 12:39:55;;;;;;;2.45;1.40;;;29.30;54.60;;;;;;5059847;28;20032;-72
2023/08/13 12:42:21;;;;;;;7.22;2.13;;;29.20;54.50;;;;;;5062979;28;20036;-72
2023/08/13 12:44:48;;;;;;;3.75;1.85;;;29.10;54.70;;;;;;5059846;28;20499;-71
2023/08/13 12:47:14;;;;;;;5.90;1.30;;;29.10;54.70;;;;;;5063507;28;20060;-71
2023/08/13 12:49:40;;;;;;;3.58;1.50;;;29.00;54.60;;;;;;5058539;28;20033;-71